createdAt,value
2023-03-17T00:00:18.958Z,23.44
2023-03-17T00:56:29.911Z,24.30
2023-03-17T01:00:30.840Z,23.47
2023-03-17T01:04:30.741Z,23.44
2023-03-17T01:08:30.938Z,23.47
2023-03-17T01:32:31.296Z,23.29
2023-03-17T01:36:31.288Z,23.26
2023-03-17T01:40:31.929Z,23.35
2023-03-17T01:44:31.369Z,23.32
2023-03-17T01:48:31.367Z,23.29
2023-03-17T01:52:31.347Z,23.30
2023-03-17T01:56:31.357Z,23.24
2023-03-17T02:00:31.878Z,23.26
2023-03-17T02:04:31.483Z,23.32
2023-03-17T02:08:31.409Z,23.34
2023-03-17T02:12:31.439Z,23.23
2023-03-17T02:16:31.500Z,23.23
2023-03-17T02:20:31.979Z,23.25
2023-03-17T02:24:31.481Z,23.32
2023-03-17T02:28:31.496Z,23.30
2023-03-17T02:32:31.567Z,23.24
2023-03-17T02:36:31.585Z,23.23
2023-03-17T02:44:31.542Z,23.19
2023-03-17T02:48:31.539Z,23.16
2023-03-17T02:52:31.479Z,23.19
2023-03-17T02:56:31.451Z,23.18
2023-03-17T03:00:31.841Z,23.14
2023-03-17T03:04:31.396Z,23.19
2023-03-17T03:08:31.339Z,23.14
2023-03-17T03:12:31.305Z,23.16
2023-03-17T03:16:31.258Z,23.14
2023-03-17T03:20:31.674Z,23.11
2023-03-17T03:24:31.187Z,23.14
2023-03-17T03:28:31.150Z,23.11
2023-03-17T03:32:31.136Z,23.09
2023-03-17T03:36:31.106Z,23.09
2023-03-17T03:40:31.522Z,23.10
2023-03-17T03:44:31.013Z,23.08
2023-03-17T03:48:30.968Z,23.07
2023-03-17T03:52:30.962Z,23.05
2023-03-17T03:56:30.957Z,23.08
2023-03-17T04:00:31.138Z,23.06
2023-03-17T04:04:30.874Z,23.08
2023-03-17T04:08:30.902Z,23.09
2023-03-17T04:12:30.874Z,23.06
2023-03-17T04:16:30.964Z,23.05
2023-03-17T04:20:31.113Z,23.14
2023-03-17T04:24:30.967Z,23.12
2023-03-17T04:28:30.971Z,23.11
2023-03-17T04:32:31.003Z,23.04
2023-03-17T04:36:31.009Z,23.10
2023-03-17T04:40:31.370Z,23.04
2023-03-17T04:44:31.024Z,23.11
2023-03-17T04:48:31.036Z,23.06
2023-03-17T04:52:31.035Z,23.06
2023-03-17T04:56:32.010Z,23.05
2023-03-17T05:00:31.284Z,23.01
2023-03-17T05:04:32.351Z,23.01
2023-03-17T05:08:31.122Z,23.00
2023-03-17T05:12:31.159Z,23.00
2023-03-17T05:16:31.225Z,23.06
2023-03-17T05:20:31.478Z,23.02
2023-03-17T05:24:31.159Z,23.02
2023-03-17T05:28:31.203Z,23.01
2023-03-17T05:32:31.640Z,23.04
2023-03-17T05:36:31.222Z,22.93
2023-03-17T05:40:31.610Z,22.97
2023-03-17T05:44:31.298Z,22.97
2023-03-17T05:48:31.289Z,22.98
2023-03-17T05:52:31.303Z,22.99
2023-03-17T05:56:31.314Z,22.92
2023-03-17T06:00:31.916Z,22.95
2023-03-17T06:04:31.362Z,23.00
2023-03-17T06:08:31.508Z,23.01
2023-03-17T06:12:30.376Z,22.95
2023-03-17T06:16:31.411Z,22.92
2023-03-17T06:20:31.376Z,22.92
2023-03-17T06:24:31.504Z,23.09
2023-03-17T06:28:31.504Z,23.25
2023-03-17T06:32:31.585Z,23.40
2023-03-17T06:36:31.321Z,23.53
2023-03-17T06:40:31.512Z,23.68
2023-03-17T06:44:31.513Z,23.83
2023-03-17T06:48:31.546Z,23.94
2023-03-17T06:52:32.018Z,22.56
2023-03-17T06:56:31.668Z,22.27
2023-03-17T07:00:32.139Z,22.74
2023-03-17T07:04:32.118Z,22.82
2023-03-17T07:08:32.018Z,23.16
2023-03-17T07:12:31.821Z,22.90
2023-03-17T07:16:32.052Z,22.79
2023-03-17T07:20:32.139Z,22.74
2023-03-17T07:24:32.068Z,22.75
2023-03-17T07:28:32.523Z,22.80
2023-03-17T07:32:32.132Z,22.52
2023-03-17T07:36:32.565Z,22.84
2023-03-17T07:40:34.879Z,22.51
2023-03-17T07:44:32.536Z,22.79
2023-03-17T07:48:32.533Z,23.30
2023-03-17T07:52:32.921Z,23.11
2023-03-17T07:56:32.037Z,22.81
2023-03-17T08:00:32.391Z,22.75
2023-03-17T08:04:32.035Z,22.71
2023-03-17T08:08:32.255Z,22.65
2023-03-17T08:12:32.071Z,22.68
2023-03-17T08:16:32.096Z,22.68
2023-03-17T08:20:31.482Z,22.54
2023-03-17T08:24:32.070Z,22.58
2023-03-17T08:28:32.046Z,22.55
2023-03-17T08:32:33.599Z,22.59
2023-03-17T08:36:32.079Z,23.18
2023-03-17T08:40:32.244Z,23.23
2023-03-17T08:44:32.081Z,23.35
2023-03-17T08:48:32.058Z,23.43
2023-03-17T08:52:32.749Z,23.41
2023-03-17T08:56:32.103Z,24.37
2023-03-17T09:00:32.377Z,25.21
2023-03-17T09:04:33.089Z,24.55
2023-03-17T09:08:32.065Z,24.15
2023-03-17T09:12:34.115Z,24.07
2023-03-17T09:16:31.626Z,24.05
2023-03-17T09:20:31.867Z,23.93
2023-03-17T09:24:31.607Z,23.92
2023-03-17T09:28:31.592Z,23.88
2023-03-17T09:32:31.427Z,23.71
2023-03-17T09:36:31.582Z,23.72
2023-03-17T09:40:31.977Z,23.68
2023-03-17T09:44:31.596Z,23.76
2023-03-17T09:48:31.238Z,23.83
2023-03-17T09:52:31.576Z,23.70
2023-03-17T09:56:32.074Z,23.58
2023-03-17T10:04:31.103Z,23.68
2023-03-17T10:08:32.352Z,23.48
2023-03-17T10:12:31.200Z,23.46
2023-03-17T10:16:31.267Z,23.46
2023-03-17T10:20:31.592Z,23.54
2023-03-17T10:24:31.589Z,23.68
2023-03-17T10:28:31.592Z,23.82
2023-03-17T10:32:31.626Z,24.13
2023-03-17T10:36:31.599Z,24.34
2023-03-17T10:40:31.971Z,24.49
2023-03-17T10:44:31.102Z,24.68
2023-03-17T10:48:31.171Z,24.84
2023-03-17T10:52:31.605Z,25.17
2023-03-17T10:56:32.100Z,25.18
2023-03-17T11:04:31.649Z,25.51
2023-03-17T11:08:31.642Z,25.51
2023-03-17T11:12:31.416Z,25.62
2023-03-17T11:16:31.730Z,25.71
2023-03-17T11:20:31.818Z,25.60
2023-03-17T11:24:32.227Z,25.59
2023-03-17T11:28:31.635Z,25.54
2023-03-17T11:32:31.736Z,25.47
2023-03-17T11:36:31.513Z,25.39
2023-03-17T11:40:32.143Z,25.39
2023-03-17T11:44:31.649Z,25.35
2023-03-17T11:48:31.653Z,25.30
2023-03-17T11:52:31.697Z,25.27
2023-03-17T11:56:31.647Z,25.26
2023-03-17T12:00:31.950Z,25.25
2023-03-17T12:04:31.394Z,25.21
2023-03-17T12:08:31.675Z,25.15
2023-03-17T12:12:31.397Z,25.16
2023-03-17T12:16:31.646Z,25.08
2023-03-17T12:20:31.975Z,24.96
2023-03-17T12:24:31.335Z,24.96
2023-03-17T12:28:31.649Z,25.02
2023-03-17T12:32:31.670Z,25.01
2023-03-17T12:36:31.655Z,24.96
2023-03-17T12:40:32.178Z,24.90
2023-03-17T12:44:31.260Z,24.92
2023-03-17T12:48:31.308Z,24.84
2023-03-17T12:52:31.276Z,24.69
2023-03-17T12:56:31.705Z,24.64
2023-03-17T13:00:31.204Z,28.52
2023-03-17T13:04:31.662Z,27.31
2023-03-17T13:12:31.208Z,27.78
2023-03-17T13:16:31.209Z,27.60
2023-03-17T13:20:31.043Z,26.96
2023-03-17T13:24:30.988Z,26.76
2023-03-17T13:28:30.976Z,26.76
2023-03-17T13:32:31.200Z,26.55
2023-03-17T13:36:30.881Z,26.19
2023-03-17T13:40:31.466Z,26.12
2023-03-17T13:44:30.885Z,26.18
2023-03-17T13:48:31.200Z,26.14
2023-03-17T13:52:31.699Z,26.11
2023-03-17T13:56:34.731Z,26.10
2023-03-17T14:00:32.291Z,26.03
2023-03-17T14:04:33.532Z,26.02
2023-03-17T14:08:31.706Z,25.94
2023-03-17T14:12:31.704Z,25.91
2023-03-17T14:16:31.923Z,25.90
2023-03-17T14:20:31.719Z,25.87
2023-03-17T14:24:31.243Z,25.85
2023-03-17T14:28:31.711Z,25.81
2023-03-17T14:32:31.558Z,25.84
2023-03-17T14:36:31.712Z,25.78
2023-03-17T14:40:31.859Z,25.80
2023-03-17T14:44:32.035Z,25.79
2023-03-17T14:48:32.193Z,25.75
2023-03-17T14:52:32.332Z,25.72
2023-03-17T14:56:32.421Z,25.71
2023-03-17T15:00:32.503Z,25.71
2023-03-17T15:04:32.781Z,25.67
2023-03-17T15:08:34.527Z,25.67
2023-03-17T15:12:32.625Z,25.70
2023-03-17T15:16:32.601Z,25.69
2023-03-17T15:20:33.415Z,25.73
2023-03-17T15:24:32.734Z,25.71
2023-03-17T15:28:32.750Z,25.65
2023-03-17T15:32:32.805Z,25.71
2023-03-17T15:36:33.506Z,25.63
2023-03-17T15:40:33.361Z,25.69
2023-03-17T15:44:33.026Z,25.59
2023-03-17T15:48:33.252Z,25.63
2023-03-17T15:52:33.789Z,25.63
2023-03-17T15:56:33.376Z,25.66
2023-03-17T16:00:33.878Z,25.63
2023-03-17T16:04:34.297Z,25.60
2023-03-17T16:08:33.443Z,25.63
2023-03-17T16:12:33.750Z,25.60
2023-03-17T16:16:33.572Z,25.58
2023-03-17T16:20:34.114Z,25.60
2023-03-17T16:24:33.673Z,25.61
2023-03-17T16:28:33.731Z,25.57
2023-03-17T16:32:34.299Z,25.59
2023-03-17T16:36:33.977Z,25.61
2023-03-17T16:40:34.254Z,25.58
2023-03-17T16:44:36.859Z,25.61
2023-03-17T16:48:34.093Z,25.59
2023-03-17T16:52:34.070Z,25.58
2023-03-17T16:56:34.143Z,25.59
2023-03-17T17:00:34.258Z,25.57
2023-03-17T17:04:33.955Z,25.60
2023-03-17T17:08:33.925Z,25.57
2023-03-17T17:12:33.904Z,25.56
2023-03-17T17:16:34.339Z,25.67
2023-03-17T17:20:34.779Z,25.61
2023-03-17T17:24:33.777Z,25.58
2023-03-17T17:28:33.769Z,25.64
2023-03-17T17:32:33.730Z,25.57
2023-03-17T17:36:33.787Z,25.56
2023-03-17T17:40:34.108Z,25.56
2023-03-17T17:44:33.626Z,25.57
2023-03-17T17:48:33.562Z,25.56
2023-03-17T17:52:33.531Z,25.58
2023-03-17T17:56:33.491Z,25.58
2023-03-17T18:00:33.746Z,25.60
2023-03-17T18:04:33.613Z,25.58
2023-03-17T18:08:33.641Z,25.57
2023-03-17T18:12:33.738Z,25.58
2023-03-17T18:16:33.871Z,25.60
2023-03-17T18:20:34.762Z,25.62
2023-03-17T18:24:33.934Z,25.61
2023-03-17T18:28:34.069Z,25.61
2023-03-17T18:32:34.230Z,25.62
2023-03-17T18:36:34.175Z,25.63
2023-03-17T18:40:34.720Z,25.65
2023-03-17T18:44:34.399Z,25.63
2023-03-17T18:48:34.537Z,25.67
2023-03-17T18:52:34.644Z,25.64
2023-03-17T18:56:34.810Z,25.65
2023-03-17T19:00:34.892Z,25.63
2023-03-17T19:04:35.039Z,25.60
2023-03-17T19:08:35.097Z,25.62
2023-03-17T19:12:35.826Z,25.56
2023-03-17T19:16:35.351Z,25.57
2023-03-17T19:20:35.314Z,25.55
2023-03-17T19:24:35.351Z,25.51
2023-03-17T19:28:35.380Z,25.50
2023-03-17T19:32:35.447Z,25.50
2023-03-17T19:36:35.516Z,25.53
2023-03-17T19:40:36.333Z,25.53
2023-03-17T19:44:35.645Z,25.50
2023-03-17T19:48:35.701Z,25.52
2023-03-17T19:52:35.890Z,25.54
2023-03-17T19:56:35.839Z,25.49
2023-03-17T20:00:35.902Z,25.51
2023-03-17T20:04:36.431Z,25.47
2023-03-17T20:08:42.854Z,25.44
2023-03-17T20:12:35.980Z,25.46
2023-03-17T20:16:35.943Z,25.46
2023-03-17T20:20:35.901Z,25.49
2023-03-17T20:24:35.896Z,25.45
2023-03-17T20:28:35.852Z,25.42
2023-03-17T20:32:35.846Z,25.44
2023-03-17T20:36:35.765Z,25.43
2023-03-17T20:40:35.787Z,25.42
2023-03-17T20:44:35.842Z,25.40
2023-03-17T20:48:35.899Z,25.32
2023-03-17T20:52:35.952Z,25.34
2023-03-17T20:56:36.038Z,25.29
2023-03-17T21:00:36.065Z,25.29
2023-03-17T21:04:36.109Z,25.27
2023-03-17T21:08:36.157Z,25.26
2023-03-17T21:12:36.241Z,25.27
2023-03-17T21:16:36.346Z,25.22
2023-03-17T21:20:36.313Z,25.23
2023-03-17T21:24:36.367Z,25.26
2023-03-17T21:28:36.448Z,25.22
2023-03-17T21:32:36.680Z,25.19
2023-03-17T21:36:36.526Z,25.15
2023-03-17T21:40:36.553Z,25.12
2023-03-17T21:44:36.598Z,25.10
2023-03-17T21:48:36.606Z,25.09
2023-03-17T21:52:36.878Z,25.09
2023-03-17T21:56:36.685Z,25.05
2023-03-17T22:00:45.006Z,25.06
2023-03-17T22:04:36.707Z,25.04
2023-03-17T22:08:36.655Z,25.03
2023-03-17T22:12:36.616Z,25.02
2023-03-17T22:16:36.642Z,24.99
2023-03-17T22:20:36.550Z,24.97
2023-03-17T22:24:37.385Z,24.95
2023-03-17T22:28:36.473Z,24.95
2023-03-17T22:32:36.536Z,24.98
2023-03-17T22:36:36.413Z,24.97
2023-03-17T22:40:36.373Z,24.94
2023-03-17T22:44:36.340Z,24.94
2023-03-17T22:48:36.424Z,24.94
2023-03-17T22:52:36.406Z,24.94
2023-03-17T22:56:36.368Z,24.94
2023-03-17T23:00:36.429Z,24.92
2023-03-17T23:04:36.530Z,24.90
2023-03-17T23:08:36.583Z,24.85
2023-03-17T23:12:36.601Z,24.87
2023-03-17T23:16:36.690Z,24.86
2023-03-17T23:20:36.778Z,24.80
2023-03-17T23:24:36.734Z,24.77
2023-03-17T23:28:39.416Z,24.72
2023-03-17T23:32:36.795Z,24.77
2023-03-17T23:36:36.740Z,24.75
2023-03-17T23:40:36.683Z,24.74
2023-03-17T23:44:36.640Z,24.74
2023-03-17T23:48:43.407Z,24.79
2023-03-17T23:52:36.584Z,24.79
2023-03-17T23:56:36.524Z,24.79
